更多

tag 标签: 力量型训练器

相关帖子

版块 作者 回复/查看 最后发表
C4D力量组合扩胸器械单人站综合训练器力量训练器械组合器械Kinetic tech attach_img 3D模型 c4dgame 2022-5-13 158 158 天天88 2022-5-17 09:47
C4D健身房多功能史密斯机举重床框式深蹲架卧推架组合健身器材Delta xl attach_img 3D模型 c4dgame 2022-5-13 158 259 younao 2022-5-17 11:01
C4D健身器材套装组合多功能室内力量运动器械综合训练器材单人站Multigym attach_img 3D模型 c4dgame 2022-5-13 158 158 Shiroi 2022-5-17 10:06
C4D臂力锻炼拉臂机健身器材多功能健身器材综合训练器力量健身房综合训练器 attach_img 3D模型 c4dgame 2022-5-13 158 259 yakingL 2022-5-17 11:05
C4D举重床多功能杠铃套装哑铃凳健身器材primus attach_img 3D模型 c4dgame 2022-5-13 158 158 ymyqyl 2022-5-17 10:11
C4D高拉力背肌训练器商用健身房俱乐部专业力量训练器材 attach_img 3D模型 c4dgame 2022-5-13 158 158 05.9 2022-5-17 11:15
C4D哑铃凳仰卧起坐家用收腹器多功能健腹肌板健身房健身器材 attach_img 3D模型 c4dgame 2022-5-13 158 158 爱吃面条的我 2022-5-17 15:59
C4D蹬腿练习器倒蹬式大腿运动健身训练器 attach_img 3D模型 c4dgame 2022-5-13 158 158 houzi 2022-5-17 16:49
C4D多功能综合健身训练器综合性力量训练器械 attach_img 3D模型 c4dgame 2022-5-13 158 259 小三MM 2022-5-17 17:51
C4D坐式斜上推胸训练器健身房健身器材 attach_img 3D模型 c4dgame 2022-5-13 158 375 查理不会滑翔伞 2022-5-17 17:49
C4D推举式三头肌练习器推拉运动健身机 attach_img 3D模型 c4dgame 2022-5-13 158 439 feeser 2022-5-17 16:31
C4D综合训练器家用组合大型多功能健身器材力量器械健身器材 attach_img 3D模型 c4dgame 2022-5-16 101 101 agdydn 2022-5-18 14:46
C4D坐姿式双向推胸手臂前推肌肉力量训练器械 attach_img 3D模型 c4dgame 2022-5-16 96 205 fl1004653583 2022-5-18 15:54
C4D推拉运动健身器材专业健身房器械 attach_img 3D模型 c4dgame 2022-5-16 95 95 18611786871 2022-5-18 16:05
C4D坐式蹬腿练习器健身房蹬腿机商用腿部力量健身局部型训练器械 attach_img 3D模型 c4dgame 2022-5-16 98 98 littlehat 2022-5-18 17:19
C4D深蹲架杠铃臂力锻炼健身房器械 attach_img 3D模型 c4dgame 2022-5-16 95 196 123abc 2022-5-18 22:33
C4D哑铃架子家用哑铃支架可拆卸加厚商用健身哑铃架子 attach_img 3D模型 c4dgame 2022-5-16 101 264 lifeng8223359 2022-6-9 08:33
C4D举重器材架哑铃架子 attach_img 3D模型 c4dgame 2022-5-16 108 108 oppp 2022-5-19 08:05
C4D坐式上推训练器杠杆式肩部按压负重运动肩部训练长凳 attach_img 3D模型 c4dgame 2022-5-16 103 103 dengzhiiii 2022-5-19 09:29
C4D踩踏机训练塑料球初级塑料哑铃 attach_img 3D模型 c4dgame 2022-5-16 107 107 PHIL 2022-5-19 09:51

相关日志

没有相关内容


返回顶部